createdAt,value
2018-12-05T00:02:08.943Z,95.50
2018-12-05T00:04:37.483Z,95.90
2018-12-05T00:07:06.041Z,95.80
2018-12-05T00:09:34.527Z,95.60
2018-12-05T00:12:03.201Z,95.60
2018-12-05T00:14:31.765Z,95.70
2018-12-05T00:17:00.577Z,95.80
2018-12-05T00:19:29.182Z,95.90
2018-12-05T00:21:57.825Z,95.90
2018-12-05T00:24:26.370Z,95.90
2018-12-05T00:26:54.921Z,95.80
2018-12-05T00:29:23.456Z,96.00
2018-12-05T00:31:52.025Z,95.90
2018-12-05T00:34:20.525Z,96.00
2018-12-05T00:36:49.084Z,96.10
2018-12-05T00:39:17.616Z,96.00
2018-12-05T00:41:46.116Z,95.90
2018-12-05T00:44:14.643Z,95.90
2018-12-05T00:46:43.191Z,95.90
2018-12-05T00:49:11.844Z,95.90
2018-12-05T00:51:40.489Z,95.90
2018-12-05T00:54:09.094Z,95.90
2018-12-05T00:56:37.604Z,95.80
2018-12-05T00:59:06.218Z,95.80
2018-12-05T01:01:34.830Z,95.80
2018-12-05T01:04:06.473Z,95.80
2018-12-05T01:06:35.043Z,95.80
2018-12-05T01:09:05.658Z,95.90
2018-12-05T01:11:34.267Z,95.90
2018-12-05T01:14:02.866Z,96.00
2018-12-05T01:16:31.483Z,96.00
2018-12-05T01:19:00.004Z,96.00
2018-12-05T01:21:35.236Z,96.00
2018-12-05T01:24:03.897Z,95.90
2018-12-05T01:26:32.436Z,96.00
2018-12-05T01:29:00.969Z,96.40
2018-12-05T01:31:29.449Z,96.10
2018-12-05T01:33:57.985Z,96.30
2018-12-05T01:36:26.679Z,96.40
2018-12-05T01:38:55.277Z,96.40
2018-12-05T01:41:23.781Z,96.50
2018-12-05T01:43:52.310Z,96.50
2018-12-05T01:46:20.799Z,97.00
2018-12-05T01:48:49.288Z,96.70
2018-12-05T01:51:17.924Z,96.90
2018-12-05T01:53:46.527Z,96.90
2018-12-05T01:56:21.895Z,96.90
2018-12-05T01:58:50.803Z,97.00
2018-12-05T02:01:19.299Z,97.10
2018-12-05T02:03:47.893Z,97.10
2018-12-05T02:06:16.464Z,97.20
2018-12-05T02:08:45.046Z,97.30
2018-12-05T02:11:13.600Z,97.30
2018-12-05T02:13:42.157Z,97.30
2018-12-05T02:16:10.660Z,97.30
2018-12-05T02:18:39.342Z,97.40
2018-12-05T02:21:07.824Z,97.60
2018-12-05T02:23:36.342Z,97.40
2018-12-05T02:26:05.094Z,97.40
2018-12-05T02:28:33.614Z,97.40
2018-12-05T02:31:02.243Z,97.50
2018-12-05T02:33:30.768Z,97.40
2018-12-05T02:35:59.269Z,97.40
2018-12-05T02:38:27.813Z,97.40
2018-12-05T02:40:56.357Z,97.30
2018-12-05T02:43:24.845Z,97.40
2018-12-05T02:45:53.401Z,97.40
2018-12-05T02:48:21.952Z,97.50
2018-12-05T02:50:50.439Z,97.40
2018-12-05T02:53:18.975Z,97.50
2018-12-05T02:55:47.537Z,97.50
2018-12-05T02:58:16.027Z,97.60
2018-12-05T03:00:44.547Z,97.20
2018-12-05T03:03:13.108Z,97.10
2018-12-05T03:05:41.738Z,97.10
2018-12-05T03:08:10.217Z,97.10
2018-12-05T03:10:38.739Z,97.20
2018-12-05T03:13:07.250Z,97.20
2018-12-05T03:15:35.750Z,97.00
2018-12-05T03:18:04.384Z,97.30
2018-12-05T03:20:32.895Z,97.20
2018-12-05T03:23:01.442Z,97.40
2018-12-05T03:25:30.034Z,97.30
2018-12-05T03:27:58.574Z,97.30
2018-12-05T03:30:27.109Z,97.20
2018-12-05T03:32:55.658Z,97.30
2018-12-05T03:35:29.407Z,97.30
2018-12-05T03:37:58.008Z,97.40
2018-12-05T03:40:26.520Z,97.50
2018-12-05T03:42:55.020Z,97.50
2018-12-05T03:45:23.687Z,97.50
2018-12-05T03:47:52.172Z,97.60
2018-12-05T03:50:20.697Z,97.50
2018-12-05T03:52:49.259Z,97.50
2018-12-05T03:55:17.756Z,97.60
2018-12-05T03:57:46.260Z,97.50
2018-12-05T04:00:14.826Z,97.50
2018-12-05T04:02:43.344Z,97.40
2018-12-05T04:05:11.934Z,97.40
2018-12-05T04:07:40.608Z,97.40
2018-12-05T04:10:09.349Z,97.50
2018-12-05T04:12:40.811Z,97.60
2018-12-05T04:15:08.685Z,97.70
2018-12-05T04:17:37.260Z,97.80
2018-12-05T04:20:05.849Z,97.70
2018-12-05T04:22:34.426Z,97.80
2018-12-05T04:25:02.911Z,97.80
2018-12-05T04:27:31.398Z,97.80
2018-12-05T04:29:59.913Z,97.80
2018-12-05T04:32:28.398Z,97.80
2018-12-05T04:34:56.920Z,97.70
2018-12-05T04:37:25.451Z,98.00
2018-12-05T04:39:53.964Z,98.00
2018-12-05T04:42:22.454Z,98.00
2018-12-05T04:44:50.997Z,98.00
2018-12-05T04:47:19.498Z,98.00
2018-12-05T04:49:48.064Z,98.00
2018-12-05T04:52:16.567Z,98.10
2018-12-05T04:54:45.047Z,98.10
2018-12-05T04:57:13.585Z,98.10
2018-12-05T04:59:42.097Z,98.10
2018-12-05T05:02:10.555Z,98.20
2018-12-05T05:04:39.083Z,98.20
2018-12-05T05:07:07.595Z,98.20
2018-12-05T05:09:36.145Z,98.20
2018-12-05T05:12:04.751Z,98.30
2018-12-05T05:14:33.293Z,98.30
2018-12-05T05:17:01.808Z,98.20
2018-12-05T05:19:30.321Z,98.30
2018-12-05T05:21:59.049Z,98.40
2018-12-05T05:24:27.509Z,98.30
2018-12-05T05:26:56.066Z,98.20
2018-12-05T05:29:24.611Z,98.10
2018-12-05T05:31:53.083Z,98.10
2018-12-05T05:34:21.609Z,98.00
2018-12-05T05:36:50.162Z,98.10
2018-12-05T05:39:18.650Z,98.20
2018-12-05T05:41:47.284Z,98.20
2018-12-05T05:44:15.808Z,98.20
2018-12-05T05:46:44.304Z,98.20
2018-12-05T05:49:12.807Z,98.20
2018-12-05T05:51:41.280Z,98.50
2018-12-05T05:54:09.824Z,98.40
2018-12-05T05:56:38.366Z,98.60
2018-12-05T05:59:06.895Z,98.60
2018-12-05T06:01:35.433Z,98.50
2018-12-05T06:04:06.125Z,98.60
2018-12-05T06:06:34.682Z,98.50
2018-12-05T06:09:04.338Z,98.40
2018-12-05T06:11:32.814Z,98.50
2018-12-05T06:14:01.451Z,98.50
2018-12-05T06:16:29.985Z,98.50
2018-12-05T06:18:58.482Z,98.50
2018-12-05T06:21:27.033Z,98.50
2018-12-05T06:23:56.295Z,98.60
2018-12-05T06:26:24.781Z,98.70
2018-12-05T06:28:53.359Z,98.60
2018-12-05T06:31:21.955Z,98.50
2018-12-05T06:33:50.478Z,98.50
2018-12-05T06:36:19.022Z,98.70
2018-12-05T06:38:47.501Z,98.90
2018-12-05T06:41:16.283Z,99.10
2018-12-05T06:43:44.845Z,99.00
2018-12-05T06:46:14.189Z,98.90
2018-12-05T06:48:42.705Z,98.90
2018-12-05T06:51:11.296Z,99.00
2018-12-05T06:53:39.814Z,98.90
2018-12-05T06:56:08.388Z,98.80
2018-12-05T06:58:37.142Z,98.80
2018-12-05T07:01:07.801Z,98.70
2018-12-05T07:03:36.363Z,98.70
2018-12-05T07:06:04.986Z,98.80
2018-12-05T07:08:33.670Z,98.80
2018-12-05T07:11:03.146Z,99.00
2018-12-05T07:13:31.737Z,98.90
2018-12-05T07:16:00.249Z,98.90
2018-12-05T07:18:28.719Z,99.00
2018-12-05T07:20:57.259Z,98.80
2018-12-05T07:23:25.875Z,98.80
2018-12-05T07:25:54.408Z,98.90
2018-12-05T07:28:22.962Z,98.90
2018-12-05T07:30:51.502Z,98.90
2018-12-05T07:33:20.020Z,98.80
2018-12-05T07:35:48.575Z,98.90
2018-12-05T07:38:19.596Z,98.90
2018-12-05T07:40:47.634Z,99.00
2018-12-05T07:43:16.188Z,98.90
2018-12-05T07:45:44.720Z,98.90
2018-12-05T07:48:13.256Z,98.90
2018-12-05T07:50:42.008Z,98.80
2018-12-05T07:53:10.510Z,98.70
2018-12-05T07:55:39.004Z,98.70
2018-12-05T07:58:07.537Z,98.70
2018-12-05T08:00:36.158Z,98.70
2018-12-05T08:03:04.667Z,98.60
2018-12-05T08:05:33.164Z,98.50
2018-12-05T08:08:01.766Z,98.40
2018-12-05T08:10:30.289Z,98.40
2018-12-05T08:12:58.925Z,98.50
2018-12-05T08:15:27.436Z,98.40
2018-12-05T08:17:55.925Z,98.40
2018-12-05T08:20:24.419Z,98.40
2018-12-05T08:22:52.884Z,98.50
2018-12-05T08:25:21.422Z,98.60
2018-12-05T08:27:50.092Z,98.60
2018-12-05T08:30:18.664Z,98.60
2018-12-05T08:32:47.192Z,98.90
2018-12-05T08:35:15.710Z,98.70
2018-12-05T08:37:44.262Z,98.70
2018-12-05T08:40:12.752Z,98.70
2018-12-05T08:42:42.187Z,98.60
2018-12-05T08:45:10.719Z,98.60
2018-12-05T08:47:39.273Z,98.50
2018-12-05T08:50:07.999Z,98.40
2018-12-05T08:52:36.510Z,98.60
2018-12-05T08:55:05.369Z,98.40
2018-12-05T08:57:33.929Z,98.30
2018-12-05T09:00:03.267Z,98.40
2018-12-05T09:02:31.769Z,98.30
2018-12-05T09:05:00.457Z,98.20
2018-12-05T09:07:29.001Z,98.20
2018-12-05T09:09:57.547Z,98.10
2018-12-05T09:12:26.085Z,98.00
2018-12-05T09:14:54.746Z,97.80
2018-12-05T09:17:23.254Z,97.50
2018-12-05T09:19:51.862Z,97.40
2018-12-05T09:22:20.450Z,96.90
2018-12-05T09:24:48.940Z,97.00
2018-12-05T09:27:17.569Z,96.90
2018-12-05T09:29:46.080Z,97.00
2018-12-05T09:32:14.579Z,96.70
2018-12-05T09:34:43.141Z,96.90
2018-12-05T09:37:11.681Z,96.70
2018-12-05T09:39:40.199Z,96.60
2018-12-05T09:42:08.879Z,96.60
2018-12-05T09:44:37.411Z,96.00
2018-12-05T09:47:06.012Z,95.30
2018-12-05T09:49:34.643Z,95.00
2018-12-05T09:52:03.153Z,94.70
2018-12-05T09:54:31.707Z,94.60
2018-12-05T09:57:00.439Z,94.50
2018-12-05T09:59:29.115Z,94.60
2018-12-05T10:01:57.727Z,94.20
2018-12-05T10:04:26.337Z,94.00
2018-12-05T10:06:54.861Z,93.60
2018-12-05T10:09:23.370Z,93.60
2018-12-05T10:11:52.140Z,93.60
2018-12-05T10:14:20.668Z,93.50
2018-12-05T10:16:49.738Z,93.30
2018-12-05T10:19:18.244Z,93.40
2018-12-05T10:21:46.830Z,93.30
2018-12-05T10:24:15.366Z,93.30
2018-12-05T10:26:43.899Z,93.00
2018-12-05T10:29:12.414Z,92.90
2018-12-05T10:31:43.955Z,92.90
2018-12-05T10:34:12.361Z,92.50
2018-12-05T10:36:40.840Z,92.30
2018-12-05T10:39:09.884Z,92.10
2018-12-05T10:41:39.083Z,92.20
2018-12-05T10:44:07.623Z,91.90
2018-12-05T10:46:36.229Z,91.70
2018-12-05T10:49:05.208Z,91.40
2018-12-05T10:51:33.687Z,91.40
2018-12-05T10:54:02.145Z,91.40
2018-12-05T10:56:30.715Z,91.40
2018-12-05T10:58:59.351Z,91.30
2018-12-05T11:02:31.841Z,91.40
2018-12-05T11:05:05.825Z,91.20
2018-12-05T11:07:39.737Z,90.90
2018-12-05T11:10:13.639Z,90.90
2018-12-05T11:12:47.422Z,90.40
2018-12-05T11:15:21.290Z,90.20
2018-12-05T11:18:53.860Z,90.20
2018-12-05T11:21:27.898Z,90.20
2018-12-05T11:25:00.331Z,90.20
2018-12-05T11:27:29.027Z,90.20
2018-12-05T11:29:57.544Z,90.10
2018-12-05T11:32:26.285Z,90.00
2018-12-05T11:34:54.773Z,89.20
2018-12-05T11:37:23.757Z,89.20
2018-12-05T11:39:52.323Z,88.80
2018-12-05T11:42:20.835Z,88.70
2018-12-05T11:44:49.393Z,89.00
2018-12-05T11:47:17.930Z,89.40
2018-12-05T11:49:46.431Z,89.00
2018-12-05T11:52:14.939Z,89.30
2018-12-05T11:54:43.585Z,89.20
2018-12-05T11:57:12.210Z,88.90
2018-12-05T11:59:40.682Z,88.80
2018-12-05T12:02:09.251Z,88.60
2018-12-05T12:04:37.811Z,88.60
2018-12-05T12:07:06.330Z,87.70
2018-12-05T12:09:34.839Z,87.70
2018-12-05T12:12:03.542Z,87.20
2018-12-05T12:14:32.990Z,87.40
2018-12-05T12:17:02.138Z,86.30
2018-12-05T12:19:30.755Z,86.10
2018-12-05T12:21:59.213Z,85.80
2018-12-05T12:24:34.721Z,85.40
2018-12-05T12:26:58.355Z,86.00
2018-12-05T12:29:26.876Z,85.40
2018-12-05T12:31:55.477Z,85.10
2018-12-05T12:34:23.990Z,85.10
2018-12-05T12:36:52.503Z,85.20
2018-12-05T12:39:21.072Z,85.40
2018-12-05T12:41:49.592Z,85.90
2018-12-05T12:44:18.128Z,85.10
2018-12-05T12:46:46.643Z,83.90
2018-12-05T12:49:15.127Z,84.30
2018-12-05T12:51:43.616Z,84.50
2018-12-05T12:54:12.169Z,85.60
2018-12-05T12:56:40.753Z,85.50
2018-12-05T12:59:09.242Z,85.20
2018-12-05T13:01:37.888Z,85.20
2018-12-05T13:04:06.357Z,85.50
2018-12-05T13:06:34.965Z,85.20
2018-12-05T13:09:05.417Z,85.80
2018-12-05T13:11:33.901Z,85.80
2018-12-05T13:14:02.425Z,86.20
2018-12-05T13:16:30.965Z,86.60
2018-12-05T13:18:59.511Z,86.40
2018-12-05T13:21:27.984Z,86.70
2018-12-05T13:23:56.539Z,87.30
2018-12-05T13:26:25.102Z,87.90
2018-12-05T13:28:54.383Z,88.10
2018-12-05T13:31:22.965Z,88.40
2018-12-05T13:33:51.408Z,87.70
2018-12-05T13:36:19.920Z,87.10
2018-12-05T13:38:48.457Z,86.90
2018-12-05T13:41:16.972Z,86.40
2018-12-05T13:43:45.611Z,86.10
2018-12-05T13:46:14.142Z,86.60
2018-12-05T13:48:42.621Z,87.20
2018-12-05T13:51:11.371Z,87.20
2018-12-05T13:53:39.921Z,87.40
2018-12-05T13:56:08.485Z,88.00
2018-12-05T13:58:36.976Z,87.70
2018-12-05T14:01:05.514Z,87.00
2018-12-05T14:03:34.043Z,87.20
2018-12-05T14:06:02.672Z,86.80
2018-12-05T14:08:31.178Z,87.60
2018-12-05T14:10:59.646Z,88.60
2018-12-05T14:13:28.108Z,89.50
2018-12-05T14:15:56.737Z,90.00
2018-12-05T14:18:25.349Z,90.20
2018-12-05T14:20:53.823Z,90.50
2018-12-05T14:23:22.349Z,90.50
2018-12-05T14:25:50.871Z,90.70
2018-12-05T14:28:19.395Z,90.90
2018-12-05T14:30:47.957Z,91.00
2018-12-05T14:33:16.423Z,91.20
2018-12-05T14:35:44.988Z,91.40
2018-12-05T14:38:13.544Z,91.40
2018-12-05T14:40:42.307Z,91.50
2018-12-05T14:43:10.824Z,91.90
2018-12-05T14:45:39.449Z,92.10
2018-12-05T14:48:07.945Z,92.10
2018-12-05T14:50:36.566Z,92.10
2018-12-05T14:53:05.499Z,92.20
2018-12-05T14:55:33.990Z,92.30
2018-12-05T14:58:02.480Z,92.50
2018-12-05T15:00:31.078Z,92.60
2018-12-05T15:02:59.562Z,92.60
2018-12-05T15:05:28.064Z,92.60
2018-12-05T15:07:56.740Z,92.70
2018-12-05T15:10:25.225Z,92.60
2018-12-05T15:12:53.728Z,92.50
2018-12-05T15:15:22.347Z,92.60
2018-12-05T15:17:50.847Z,92.50
2018-12-05T15:20:19.456Z,92.70
2018-12-05T15:22:48.009Z,92.60
2018-12-05T15:25:16.488Z,92.60
2018-12-05T15:27:45.159Z,92.60
2018-12-05T15:30:13.819Z,92.60
2018-12-05T15:32:42.353Z,92.60
2018-12-05T15:35:10.886Z,92.70
2018-12-05T15:37:39.378Z,92.80
2018-12-05T15:40:08.261Z,92.80
2018-12-05T15:42:36.797Z,92.90
2018-12-05T15:45:06.982Z,92.70
2018-12-05T15:47:36.380Z,92.60
2018-12-05T15:50:06.825Z,92.50
2018-12-05T15:52:35.518Z,92.60
2018-12-05T15:55:04.331Z,92.80
2018-12-05T15:57:32.870Z,92.50
2018-12-05T16:00:01.551Z,92.40
2018-12-05T16:02:30.089Z,92.40
2018-12-05T16:04:58.611Z,92.20
2018-12-05T16:07:27.126Z,92.10
2018-12-05T16:09:55.661Z,92.10
2018-12-05T16:12:24.254Z,92.00
2018-12-05T16:14:53.019Z,91.90
2018-12-05T16:17:21.554Z,91.80
2018-12-05T16:19:50.126Z,91.70
2018-12-05T16:22:18.698Z,91.70
2018-12-05T16:24:47.224Z,91.60
2018-12-05T16:27:15.798Z,91.50
2018-12-05T16:29:44.320Z,91.40
2018-12-05T16:32:13.016Z,91.30
2018-12-05T16:34:41.765Z,91.30
2018-12-05T16:37:10.348Z,91.40
2018-12-05T16:39:38.874Z,91.30
2018-12-05T16:42:07.490Z,91.40
2018-12-05T16:44:36.079Z,91.30
2018-12-05T16:47:04.577Z,91.30
2018-12-05T16:49:33.371Z,91.30
2018-12-05T16:52:02.283Z,91.40
2018-12-05T16:54:31.274Z,91.60
2018-12-05T16:56:59.793Z,91.40
2018-12-05T16:59:28.331Z,91.30
2018-12-05T17:01:56.848Z,91.30
2018-12-05T17:04:25.419Z,91.20
2018-12-05T17:06:53.946Z,91.20
2018-12-05T17:09:25.976Z,91.30
2018-12-05T17:11:53.036Z,90.90
2018-12-05T17:14:21.690Z,90.90
2018-12-05T17:16:50.354Z,90.50
2018-12-05T17:19:18.966Z,90.40
2018-12-05T17:21:47.494Z,90.10
2018-12-05T17:24:15.994Z,90.10
2018-12-05T17:26:44.510Z,89.90
2018-12-05T17:29:13.054Z,89.80
2018-12-05T17:31:41.601Z,89.90
2018-12-05T17:34:10.071Z,90.00
2018-12-05T17:36:38.757Z,90.10
2018-12-05T17:39:08.948Z,90.00
2018-12-05T17:41:37.513Z,90.00
2018-12-05T17:44:06.164Z,90.00
2018-12-05T17:46:34.693Z,90.00
2018-12-05T17:49:03.237Z,90.00
2018-12-05T17:51:31.836Z,90.20
2018-12-05T17:54:00.394Z,89.80
2018-12-05T17:56:28.962Z,89.90
2018-12-05T17:58:57.510Z,89.80
2018-12-05T18:01:26.110Z,90.00
2018-12-05T18:03:54.717Z,90.00
2018-12-05T18:06:24.286Z,90.20
2018-12-05T18:08:53.059Z,90.30
2018-12-05T18:11:21.779Z,90.10
2018-12-05T18:13:50.545Z,90.10
2018-12-05T18:16:19.243Z,90.00
2018-12-05T18:18:48.001Z,90.00
2018-12-05T18:21:16.623Z,90.00
2018-12-05T18:23:45.381Z,89.40
2018-12-05T18:26:13.916Z,89.30
2018-12-05T18:28:42.540Z,89.40
2018-12-05T18:31:11.069Z,89.00
2018-12-05T18:33:39.703Z,89.30
2018-12-05T18:36:08.354Z,89.60
2018-12-05T18:38:37.056Z,89.30
2018-12-05T18:41:06.206Z,89.60
2018-12-05T18:43:35.076Z,89.30
2018-12-05T18:46:03.655Z,89.40
2018-12-05T18:48:32.365Z,89.30
2018-12-05T18:51:01.919Z,89.40
2018-12-05T18:53:30.547Z,89.50
2018-12-05T18:55:59.616Z,89.40
2018-12-05T18:58:28.266Z,89.80
2018-12-05T19:00:56.988Z,90.20
2018-12-05T19:03:25.533Z,90.20
2018-12-05T19:05:54.869Z,90.10
2018-12-05T19:08:23.433Z,90.00
2018-12-05T19:10:52.037Z,89.60
2018-12-05T19:13:21.565Z,90.00
2018-12-05T19:15:50.252Z,90.00
2018-12-05T19:18:18.846Z,89.60
2018-12-05T19:20:47.528Z,90.00
2018-12-05T19:23:16.114Z,89.60
2018-12-05T19:25:44.710Z,89.10
2018-12-05T19:28:13.262Z,88.80
2018-12-05T19:30:42.012Z,88.60
2018-12-05T19:33:10.539Z,88.60
2018-12-05T19:35:39.755Z,88.90
2018-12-05T19:38:08.304Z,89.30
2018-12-05T19:40:37.068Z,90.00
2018-12-05T19:43:05.682Z,89.50
2018-12-05T19:45:34.249Z,89.00
2018-12-05T19:48:02.862Z,88.80
2018-12-05T19:50:31.490Z,88.90
2018-12-05T19:53:00.053Z,89.00
2018-12-05T19:55:35.317Z,88.90
2018-12-05T19:58:03.980Z,88.90
2018-12-05T20:00:32.640Z,88.80
2018-12-05T20:03:01.350Z,88.50
2018-12-05T20:05:30.326Z,88.30
2018-12-05T20:07:58.962Z,88.20
2018-12-05T20:10:27.720Z,87.70
2018-12-05T20:12:56.342Z,87.40
2018-12-05T20:15:24.868Z,87.00
2018-12-05T20:17:53.810Z,86.40
2018-12-05T20:20:22.469Z,86.60
2018-12-05T20:22:51.041Z,86.30
2018-12-05T20:25:19.928Z,86.10
2018-12-05T20:27:48.606Z,85.90
2018-12-05T20:30:17.204Z,85.60
2018-12-05T20:32:48.017Z,85.20
2018-12-05T20:35:16.713Z,85.20
2018-12-05T20:37:45.315Z,84.80
2018-12-05T20:40:14.630Z,84.70
2018-12-05T20:42:43.390Z,84.20
2018-12-05T20:45:12.300Z,83.70
2018-12-05T20:47:40.988Z,83.20
2018-12-05T20:50:09.808Z,82.80
2018-12-05T20:52:38.465Z,83.20
2018-12-05T20:55:07.373Z,82.10
2018-12-05T20:57:35.948Z,82.50
2018-12-05T21:00:05.415Z,82.10
2018-12-05T21:02:34.087Z,81.80
2018-12-05T21:05:02.917Z,82.10
2018-12-05T21:07:31.520Z,81.80
2018-12-05T21:10:00.261Z,81.70
2018-12-05T21:12:29.030Z,82.10
2018-12-05T21:15:17.560Z,81.60
2018-12-05T21:18:20.628Z,81.20
2018-12-05T21:20:50.227Z,81.10
2018-12-05T21:23:19.060Z,81.10
2018-12-05T21:25:48.285Z,80.80
2018-12-05T21:28:16.900Z,80.80
2018-12-05T21:30:46.405Z,80.80
2018-12-05T21:33:14.993Z,80.90
2018-12-05T21:35:43.606Z,80.70
2018-12-05T21:38:12.514Z,80.80
2018-12-05T21:40:41.080Z,80.80
2018-12-05T21:43:09.763Z,80.80
2018-12-05T21:45:38.362Z,80.90
2018-12-05T21:48:07.014Z,80.40
2018-12-05T21:50:36.473Z,80.50
2018-12-05T21:53:05.234Z,80.40
2018-12-05T21:55:33.842Z,80.10
2018-12-05T21:58:02.408Z,79.90
2018-12-05T22:00:31.096Z,79.80
2018-12-05T22:02:59.690Z,79.60
2018-12-05T22:05:28.541Z,79.70
2018-12-05T22:07:57.184Z,79.50
2018-12-05T22:10:25.906Z,80.10
2018-12-05T22:12:54.494Z,78.90
2018-12-05T22:15:23.140Z,79.00
2018-12-05T22:17:51.750Z,79.10
2018-12-05T22:20:20.379Z,79.90
2018-12-05T22:22:48.976Z,79.30
2018-12-05T22:25:17.735Z,79.00
2018-12-05T22:27:46.483Z,79.00
2018-12-05T22:30:15.109Z,78.90
2018-12-05T22:32:43.651Z,78.90
2018-12-05T22:35:12.288Z,79.00
2018-12-05T22:37:40.906Z,79.00
2018-12-05T22:40:09.944Z,78.90
2018-12-05T22:42:38.888Z,79.30
2018-12-05T22:45:07.630Z,79.00
2018-12-05T22:47:36.316Z,79.60
2018-12-05T22:50:07.287Z,79.40
2018-12-05T22:52:35.950Z,79.20
2018-12-05T22:55:04.847Z,79.10
2018-12-05T22:57:33.435Z,79.20
2018-12-05T23:00:01.989Z,79.50
2018-12-05T23:02:30.548Z,79.20
2018-12-05T23:05:04.467Z,80.00
2018-12-05T23:07:33.345Z,79.80
2018-12-05T23:10:02.100Z,79.40
2018-12-05T23:12:30.707Z,79.50
2018-12-05T23:14:59.546Z,79.30
2018-12-05T23:17:28.948Z,79.60
2018-12-05T23:19:57.458Z,80.00
2018-12-05T23:22:26.112Z,79.90
2018-12-05T23:24:54.757Z,80.20
2018-12-05T23:27:23.333Z,80.80
2018-12-05T23:29:51.938Z,80.70
2018-12-05T23:32:20.503Z,80.80
2018-12-05T23:34:49.058Z,81.30
2018-12-05T23:37:17.586Z,81.20
2018-12-05T23:39:46.188Z,82.70
2018-12-05T23:42:14.731Z,83.60
2018-12-05T23:44:43.265Z,84.10
2018-12-05T23:47:11.850Z,84.10
2018-12-05T23:49:40.604Z,85.00
2018-12-05T23:52:09.082Z,86.00
2018-12-05T23:54:37.546Z,86.60
2018-12-05T23:57:06.142Z,87.20
2018-12-05T23:59:34.746Z,86.20
